sensor_id;sensor_type;location;lat;lon;timestamp;P1;durP1;ratioP1;P2;durP2;ratioP2
16308;SDS011;8263;48.880;9.276;2022-12-20T00:01:27;138.13;;;127.70;;
16308;SDS011;8263;48.880;9.276;2022-12-20T00:03:55;139.00;;;128.68;;
16308;SDS011;8263;48.880;9.276;2022-12-20T00:06:22;137.70;;;127.20;;
16308;SDS011;8263;48.880;9.276;2022-12-20T00:08:51;139.38;;;128.80;;
16308;SDS011;8263;48.880;9.276;2022-12-20T00:11:20;138.75;;;128.20;;
16308;SDS011;8263;48.880;9.276;2022-12-20T00:13:46;138.73;;;128.55;;
16308;SDS011;8263;48.880;9.276;2022-12-20T00:16:14;135.88;;;126.13;;
16308;SDS011;8263;48.880;9.276;2022-12-20T00:18:40;137.10;;;127.20;;
16308;SDS011;8263;48.880;9.276;2022-12-20T00:21:08;137.73;;;127.68;;
16308;SDS011;8263;48.880;9.276;2022-12-20T00:23:35;138.88;;;128.70;;
16308;SDS011;8263;48.880;9.276;2022-12-20T00:26:03;136.77;;;126.68;;
16308;SDS011;8263;48.880;9.276;2022-12-20T00:28:31;136.68;;;126.85;;
16308;SDS011;8263;48.880;9.276;2022-12-20T00:30:57;137.98;;;127.88;;
16308;SDS011;8263;48.880;9.276;2022-12-20T00:33:24;136.10;;;126.13;;
16308;SDS011;8263;48.880;9.276;2022-12-20T00:35:50;137.27;;;127.38;;
16308;SDS011;8263;48.880;9.276;2022-12-20T00:38:17;138.40;;;127.97;;
16308;SDS011;8263;48.880;9.276;2022-12-20T00:40:43;138.57;;;128.48;;
16308;SDS011;8263;48.880;9.276;2022-12-20T00:43:10;138.23;;;127.88;;
16308;SDS011;8263;48.880;9.276;2022-12-20T00:45:38;136.00;;;126.07;;
16308;SDS011;8263;48.880;9.276;2022-12-20T00:48:04;135.50;;;125.78;;
16308;SDS011;8263;48.880;9.276;2022-12-20T00:50:31;137.00;;;126.95;;
16308;SDS011;8263;48.880;9.276;2022-12-20T00:52:58;135.18;;;125.38;;
16308;SDS011;8263;48.880;9.276;2022-12-20T00:55:24;137.30;;;127.18;;
16308;SDS011;8263;48.880;9.276;2022-12-20T00:57:50;135.73;;;125.70;;
16308;SDS011;8263;48.880;9.276;2022-12-20T01:00:18;137.57;;;127.63;;
16308;SDS011;8263;48.880;9.276;2022-12-20T01:02:46;137.43;;;127.22;;
16308;SDS011;8263;48.880;9.276;2022-12-20T01:05:13;138.10;;;128.10;;
16308;SDS011;8263;48.880;9.276;2022-12-20T01:07:39;135.23;;;125.47;;
16308;SDS011;8263;48.880;9.276;2022-12-20T01:10:06;137.63;;;127.55;;
16308;SDS011;8263;48.880;9.276;2022-12-20T01:12:33;137.82;;;127.75;;
16308;SDS011;8263;48.880;9.276;2022-12-20T01:14:59;136.95;;;127.00;;
16308;SDS011;8263;48.880;9.276;2022-12-20T01:17:26;136.77;;;126.93;;
16308;SDS011;8263;48.880;9.276;2022-12-20T01:19:53;136.88;;;126.95;;
16308;SDS011;8263;48.880;9.276;2022-12-20T01:22:20;136.73;;;126.88;;
16308;SDS011;8263;48.880;9.276;2022-12-20T01:24:46;137.80;;;127.70;;
16308;SDS011;8263;48.880;9.276;2022-12-20T01:27:13;140.90;;;130.55;;
16308;SDS011;8263;48.880;9.276;2022-12-20T01:29:39;136.98;;;126.95;;
16308;SDS011;8263;48.880;9.276;2022-12-20T01:32:06;136.95;;;126.95;;
16308;SDS011;8263;48.880;9.276;2022-12-20T01:34:32;135.90;;;126.07;;
16308;SDS011;8263;48.880;9.276;2022-12-20T01:37:01;138.30;;;128.30;;
16308;SDS011;8263;48.880;9.276;2022-12-20T01:39:27;138.25;;;128.13;;
16308;SDS011;8263;48.880;9.276;2022-12-20T01:41:53;136.45;;;126.57;;
16308;SDS011;8263;48.880;9.276;2022-12-20T01:47:05;138.40;;;128.32;;
16308;SDS011;8263;48.880;9.276;2022-12-20T01:49:32;136.50;;;126.50;;
16308;SDS011;8263;48.880;9.276;2022-12-20T01:52:03;139.38;;;129.07;;
16308;SDS011;8263;48.880;9.276;2022-12-20T01:54:31;137.23;;;127.22;;
16308;SDS011;8263;48.880;9.276;2022-12-20T01:57:01;138.77;;;128.70;;
16308;SDS011;8263;48.880;9.276;2022-12-20T01:59:28;139.00;;;128.88;;
16308;SDS011;8263;48.880;9.276;2022-12-20T02:01:55;137.65;;;127.63;;
16308;SDS011;8263;48.880;9.276;2022-12-20T02:04:23;138.40;;;128.35;;
16308;SDS011;8263;48.880;9.276;2022-12-20T02:06:49;137.15;;;127.25;;
16308;SDS011;8263;48.880;9.276;2022-12-20T02:09:17;138.32;;;128.27;;
16308;SDS011;8263;48.880;9.276;2022-12-20T02:11:54;135.85;;;126.07;;
16308;SDS011;8263;48.880;9.276;2022-12-20T02:14:31;138.07;;;128.02;;
16308;SDS011;8263;48.880;9.276;2022-12-20T02:17:03;135.75;;;125.95;;
16308;SDS011;8263;48.880;9.276;2022-12-20T02:19:45;136.82;;;126.75;;
16308;SDS011;8263;48.880;9.276;2022-12-20T02:22:18;136.85;;;126.75;;
16308;SDS011;8263;48.880;9.276;2022-12-20T02:30:16;135.18;;;125.45;;
16308;SDS011;8263;48.880;9.276;2022-12-20T02:32:44;138.10;;;128.05;;
16308;SDS011;8263;48.880;9.276;2022-12-20T02:35:13;136.75;;;126.85;;
16308;SDS011;8263;48.880;9.276;2022-12-20T02:37:47;138.75;;;128.57;;
16308;SDS011;8263;48.880;9.276;2022-12-20T02:40:14;138.05;;;127.90;;
16308;SDS011;8263;48.880;9.276;2022-12-20T02:42:41;137.00;;;127.13;;
16308;SDS011;8263;48.880;9.276;2022-12-20T02:45:08;136.18;;;126.43;;
16308;SDS011;8263;48.880;9.276;2022-12-20T02:47:44;135.63;;;125.88;;
16308;SDS011;8263;48.880;9.276;2022-12-20T02:50:11;136.05;;;126.30;;
16308;SDS011;8263;48.880;9.276;2022-12-20T02:52:38;136.10;;;126.22;;
16308;SDS011;8263;48.880;9.276;2022-12-20T02:55:05;138.57;;;128.38;;
16308;SDS011;8263;48.880;9.276;2022-12-20T02:57:34;137.07;;;127.10;;
16308;SDS011;8263;48.880;9.276;2022-12-20T03:00:03;134.45;;;124.85;;
16308;SDS011;8263;48.880;9.276;2022-12-20T03:02:30;137.15;;;127.25;;
16308;SDS011;8263;48.880;9.276;2022-12-20T03:05:20;138.68;;;128.48;;
16308;SDS011;8263;48.880;9.276;2022-12-20T03:07:47;138.68;;;128.57;;
16308;SDS011;8263;48.880;9.276;2022-12-20T03:10:14;138.88;;;128.70;;
16308;SDS011;8263;48.880;9.276;2022-12-20T03:12:40;139.43;;;128.63;;
16308;SDS011;8263;48.880;9.276;2022-12-20T03:15:07;136.07;;;126.22;;
16308;SDS011;8263;48.880;9.276;2022-12-20T03:17:33;135.77;;;126.03;;
16308;SDS011;8263;48.880;9.276;2022-12-20T03:20:00;138.60;;;128.13;;
16308;SDS011;8263;48.880;9.276;2022-12-20T03:22:28;137.25;;;127.35;;
16308;SDS011;8263;48.880;9.276;2022-12-20T03:24:55;137.40;;;127.10;;
16308;SDS011;8263;48.880;9.276;2022-12-20T03:27:22;138.10;;;127.75;;
16308;SDS011;8263;48.880;9.276;2022-12-20T03:29:50;137.48;;;127.47;;
16308;SDS011;8263;48.880;9.276;2022-12-20T03:32:16;135.93;;;126.18;;
16308;SDS011;8263;48.880;9.276;2022-12-20T03:34:42;139.10;;;129.05;;
16308;SDS011;8263;48.880;9.276;2022-12-20T03:37:09;137.68;;;127.72;;
16308;SDS011;8263;48.880;9.276;2022-12-20T03:39:39;136.77;;;126.85;;
16308;SDS011;8263;48.880;9.276;2022-12-20T03:42:06;136.40;;;126.57;;
16308;SDS011;8263;48.880;9.276;2022-12-20T03:44:33;139.23;;;129.00;;
16308;SDS011;8263;48.880;9.276;2022-12-20T03:46:59;138.43;;;128.32;;
16308;SDS011;8263;48.880;9.276;2022-12-20T03:49:25;136.63;;;126.78;;
16308;SDS011;8263;48.880;9.276;2022-12-20T03:51:52;134.43;;;124.72;;
16308;SDS011;8263;48.880;9.276;2022-12-20T03:54:19;136.63;;;126.72;;
16308;SDS011;8263;48.880;9.276;2022-12-20T03:56:47;136.65;;;126.68;;
16308;SDS011;8263;48.880;9.276;2022-12-20T03:59:14;137.82;;;127.75;;
16308;SDS011;8263;48.880;9.276;2022-12-20T04:01:41;136.18;;;126.38;;
16308;SDS011;8263;48.880;9.276;2022-12-20T04:04:08;137.77;;;127.50;;
16308;SDS011;8263;48.880;9.276;2022-12-20T04:06:35;138.13;;;128.07;;
16308;SDS011;8263;48.880;9.276;2022-12-20T04:09:02;135.98;;;126.15;;
16308;SDS011;8263;48.880;9.276;2022-12-20T04:11:28;137.00;;;127.10;;
16308;SDS011;8263;48.880;9.276;2022-12-20T04:13:56;139.65;;;129.38;;
16308;SDS011;8263;48.880;9.276;2022-12-20T04:16:23;136.85;;;126.95;;
16308;SDS011;8263;48.880;9.276;2022-12-20T04:18:50;136.77;;;126.88;;
16308;SDS011;8263;48.880;9.276;2022-12-20T04:21:20;135.02;;;125.25;;
16308;SDS011;8263;48.880;9.276;2022-12-20T04:23:46;139.35;;;129.23;;
16308;SDS011;8263;48.880;9.276;2022-12-20T04:26:13;138.82;;;128.73;;
16308;SDS011;8263;48.880;9.276;2022-12-20T04:28:39;138.55;;;128.43;;
16308;SDS011;8263;48.880;9.276;2022-12-20T04:31:08;136.38;;;126.57;;
16308;SDS011;8263;48.880;9.276;2022-12-20T04:33:34;137.82;;;127.75;;
16308;SDS011;8263;48.880;9.276;2022-12-20T04:36:02;140.02;;;129.57;;
16308;SDS011;8263;48.880;9.276;2022-12-20T04:38:29;136.82;;;126.93;;
16308;SDS011;8263;48.880;9.276;2022-12-20T04:40:55;137.45;;;127.45;;
16308;SDS011;8263;48.880;9.276;2022-12-20T04:43:22;138.52;;;128.48;;
16308;SDS011;8263;48.880;9.276;2022-12-20T04:45:49;137.80;;;127.65;;
16308;SDS011;8263;48.880;9.276;2022-12-20T04:48:18;137.70;;;127.78;;
16308;SDS011;8263;48.880;9.276;2022-12-20T04:50:46;138.90;;;128.68;;
16308;SDS011;8263;48.880;9.276;2022-12-20T04:53:12;137.55;;;127.45;;
16308;SDS011;8263;48.880;9.276;2022-12-20T04:55:56;138.77;;;128.75;;
16308;SDS011;8263;48.880;9.276;2022-12-20T04:58:23;139.18;;;129.00;;
16308;SDS011;8263;48.880;9.276;2022-12-20T05:00:49;135.57;;;125.88;;
16308;SDS011;8263;48.880;9.276;2022-12-20T05:03:18;138.88;;;127.75;;
16308;SDS011;8263;48.880;9.276;2022-12-20T05:05:45;137.50;;;127.57;;
16308;SDS011;8263;48.880;9.276;2022-12-20T05:08:12;137.50;;;127.40;;
16308;SDS011;8263;48.880;9.276;2022-12-20T05:10:38;137.77;;;127.75;;
16308;SDS011;8263;48.880;9.276;2022-12-20T05:13:05;137.95;;;127.85;;
16308;SDS011;8263;48.880;9.276;2022-12-20T05:15:32;138.90;;;128.70;;
16308;SDS011;8263;48.880;9.276;2022-12-20T05:17:58;137.10;;;127.15;;
16308;SDS011;8263;48.880;9.276;2022-12-20T05:20:27;136.48;;;126.18;;
16308;SDS011;8263;48.880;9.276;2022-12-20T05:22:54;135.80;;;126.00;;
16308;SDS011;8263;48.880;9.276;2022-12-20T05:25:38;137.35;;;127.22;;
16308;SDS011;8263;48.880;9.276;2022-12-20T05:28:22;136.18;;;126.28;;
16308;SDS011;8263;48.880;9.276;2022-12-20T05:30:49;136.90;;;126.90;;
16308;SDS011;8263;48.880;9.276;2022-12-20T05:33:16;136.75;;;126.38;;
16308;SDS011;8263;48.880;9.276;2022-12-20T05:35:43;140.15;;;129.75;;
16308;SDS011;8263;48.880;9.276;2022-12-20T05:38:10;137.38;;;127.45;;
16308;SDS011;8263;48.880;9.276;2022-12-20T05:40:37;139.02;;;128.60;;
16308;SDS011;8263;48.880;9.276;2022-12-20T05:43:04;139.23;;;129.13;;
16308;SDS011;8263;48.880;9.276;2022-12-20T05:45:31;139.48;;;128.50;;
16308;SDS011;8263;48.880;9.276;2022-12-20T05:47:58;137.45;;;127.28;;
16308;SDS011;8263;48.880;9.276;2022-12-20T05:50:24;136.20;;;126.30;;
16308;SDS011;8263;48.880;9.276;2022-12-20T05:52:52;138.68;;;128.13;;
16308;SDS011;8263;48.880;9.276;2022-12-20T05:55:19;137.57;;;127.60;;
16308;SDS011;8263;48.880;9.276;2022-12-20T05:57:45;136.05;;;126.22;;
16308;SDS011;8263;48.880;9.276;2022-12-20T06:00:12;138.88;;;128.35;;
16308;SDS011;8263;48.880;9.276;2022-12-20T06:02:39;136.13;;;126.18;;
16308;SDS011;8263;48.880;9.276;2022-12-20T06:05:05;137.48;;;127.10;;
16308;SDS011;8263;48.880;9.276;2022-12-20T06:07:32;139.18;;;129.00;;
16308;SDS011;8263;48.880;9.276;2022-12-20T06:10:00;137.85;;;127.78;;
16308;SDS011;8263;48.880;9.276;2022-12-20T06:12:26;135.27;;;125.38;;
16308;SDS011;8263;48.880;9.276;2022-12-20T06:14:53;134.63;;;124.97;;
16308;SDS011;8263;48.880;9.276;2022-12-20T06:17:19;134.40;;;124.55;;
16308;SDS011;8263;48.880;9.276;2022-12-20T06:19:46;137.05;;;127.10;;
16308;SDS011;8263;48.880;9.276;2022-12-20T06:22:12;137.10;;;127.18;;
16308;SDS011;8263;48.880;9.276;2022-12-20T06:24:39;137.30;;;127.10;;
16308;SDS011;8263;48.880;9.276;2022-12-20T06:27:07;138.20;;;128.15;;
16308;SDS011;8263;48.880;9.276;2022-12-20T06:29:34;135.40;;;125.45;;
16308;SDS011;8263;48.880;9.276;2022-12-20T06:32:01;138.10;;;128.05;;
16308;SDS011;8263;48.880;9.276;2022-12-20T06:34:29;137.43;;;127.32;;
16308;SDS011;8263;48.880;9.276;2022-12-20T06:36:55;137.60;;;127.60;;
16308;SDS011;8263;48.880;9.276;2022-12-20T06:39:22;137.07;;;127.20;;
16308;SDS011;8263;48.880;9.276;2022-12-20T06:41:49;139.13;;;128.98;;
16308;SDS011;8263;48.880;9.276;2022-12-20T06:44:17;138.98;;;128.52;;
16308;SDS011;8263;48.880;9.276;2022-12-20T06:46:43;138.55;;;128.20;;
16308;SDS011;8263;48.880;9.276;2022-12-20T06:49:10;138.73;;;128.50;;
16308;SDS011;8263;48.880;9.276;2022-12-20T06:51:37;137.93;;;127.25;;
16308;SDS011;8263;48.880;9.276;2022-12-20T06:54:03;139.52;;;129.13;;
16308;SDS011;8263;48.880;9.276;2022-12-20T06:56:30;137.95;;;127.82;;
16308;SDS011;8263;48.880;9.276;2022-12-20T06:58:56;137.82;;;127.60;;
16308;SDS011;8263;48.880;9.276;2022-12-20T07:01:24;135.50;;;125.63;;
16308;SDS011;8263;48.880;9.276;2022-12-20T07:03:50;137.95;;;127.80;;
16308;SDS011;8263;48.880;9.276;2022-12-20T07:06:17;137.75;;;127.45;;
16308;SDS011;8263;48.880;9.276;2022-12-20T07:08:44;137.50;;;127.50;;
16308;SDS011;8263;48.880;9.276;2022-12-20T07:11:10;137.13;;;127.22;;
16308;SDS011;8263;48.880;9.276;2022-12-20T07:13:37;138.35;;;128.07;;
16308;SDS011;8263;48.880;9.276;2022-12-20T07:16:04;137.55;;;127.57;;
16308;SDS011;8263;48.880;9.276;2022-12-20T07:18:32;138.70;;;128.65;;
16308;SDS011;8263;48.880;9.276;2022-12-20T07:20:59;135.80;;;125.70;;
16308;SDS011;8263;48.880;9.276;2022-12-20T07:23:26;137.05;;;127.05;;
16308;SDS011;8263;48.880;9.276;2022-12-20T07:25:53;136.75;;;126.75;;
16308;SDS011;8263;48.880;9.276;2022-12-20T07:28:20;137.38;;;127.13;;
16308;SDS011;8263;48.880;9.276;2022-12-20T07:30:47;138.48;;;128.43;;
16308;SDS011;8263;48.880;9.276;2022-12-20T07:33:13;138.57;;;128.02;;
16308;SDS011;8263;48.880;9.276;2022-12-20T07:35:41;136.80;;;126.88;;
16308;SDS011;8263;48.880;9.276;2022-12-20T07:38:09;137.80;;;127.88;;
16308;SDS011;8263;48.880;9.276;2022-12-20T07:40:38;137.98;;;127.88;;
16308;SDS011;8263;48.880;9.276;2022-12-20T07:43:04;138.02;;;128.10;;
16308;SDS011;8263;48.880;9.276;2022-12-20T07:45:31;139.30;;;129.10;;
16308;SDS011;8263;48.880;9.276;2022-12-20T07:47:58;138.02;;;128.05;;
16308;SDS011;8263;48.880;9.276;2022-12-20T07:50:24;139.48;;;129.38;;
16308;SDS011;8263;48.880;9.276;2022-12-20T07:52:53;136.95;;;126.95;;
16308;SDS011;8263;48.880;9.276;2022-12-20T07:55:20;136.77;;;126.85;;
16308;SDS011;8263;48.880;9.276;2022-12-20T07:57:48;138.45;;;128.27;;
16308;SDS011;8263;48.880;9.276;2022-12-20T08:00:16;137.63;;;127.72;;
16308;SDS011;8263;48.880;9.276;2022-12-20T08:02:45;138.32;;;128.25;;
16308;SDS011;8263;48.880;9.276;2022-12-20T08:05:12;137.45;;;127.28;;
16308;SDS011;8263;48.880;9.276;2022-12-20T08:07:40;137.20;;;127.13;;
16308;SDS011;8263;48.880;9.276;2022-12-20T08:10:09;137.40;;;127.43;;
16308;SDS011;8263;48.880;9.276;2022-12-20T08:12:36;138.93;;;128.82;;
16308;SDS011;8263;48.880;9.276;2022-12-20T08:15:04;137.52;;;127.38;;
16308;SDS011;8263;48.880;9.276;2022-12-20T08:17:30;137.75;;;127.72;;
16308;SDS011;8263;48.880;9.276;2022-12-20T08:19:57;136.52;;;126.47;;
16308;SDS011;8263;48.880;9.276;2022-12-20T08:22:24;138.25;;;128.25;;
16308;SDS011;8263;48.880;9.276;2022-12-20T08:24:51;137.18;;;127.28;;
16308;SDS011;8263;48.880;9.276;2022-12-20T08:27:19;137.50;;;127.20;;
16308;SDS011;8263;48.880;9.276;2022-12-20T08:29:45;138.57;;;128.38;;
16308;SDS011;8263;48.880;9.276;2022-12-20T08:32:12;136.48;;;125.88;;
16308;SDS011;8263;48.880;9.276;2022-12-20T08:34:38;136.27;;;126.32;;
16308;SDS011;8263;48.880;9.276;2022-12-20T08:37:05;136.27;;;126.38;;
16308;SDS011;8263;48.880;9.276;2022-12-20T08:39:31;134.43;;;124.82;;
16308;SDS011;8263;48.880;9.276;2022-12-20T08:41:59;136.65;;;126.78;;
16308;SDS011;8263;48.880;9.276;2022-12-20T08:44:27;134.90;;;125.18;;
16308;SDS011;8263;48.880;9.276;2022-12-20T08:46:53;135.77;;;125.97;;
16308;SDS011;8263;48.880;9.276;2022-12-20T08:49:20;136.80;;;126.82;;
16308;SDS011;8263;48.880;9.276;2022-12-20T08:51:46;136.60;;;126.80;;
16308;SDS011;8263;48.880;9.276;2022-12-20T08:54:13;133.43;;;123.63;;
16308;SDS011;8263;48.880;9.276;2022-12-20T08:56:39;134.23;;;124.60;;
16308;SDS011;8263;48.880;9.276;2022-12-20T08:59:05;135.27;;;125.57;;
16308;SDS011;8263;48.880;9.276;2022-12-20T09:01:33;133.30;;;123.70;;
16308;SDS011;8263;48.880;9.276;2022-12-20T09:04:00;137.38;;;127.38;;
16308;SDS011;8263;48.880;9.276;2022-12-20T09:06:26;135.32;;;125.47;;
16308;SDS011;8263;48.880;9.276;2022-12-20T09:08:53;135.23;;;125.45;;
16308;SDS011;8263;48.880;9.276;2022-12-20T09:11:21;136.52;;;126.70;;
16308;SDS011;8263;48.880;9.276;2022-12-20T09:13:49;134.20;;;124.30;;
16308;SDS011;8263;48.880;9.276;2022-12-20T09:16:16;137.52;;;127.57;;
16308;SDS011;8263;48.880;9.276;2022-12-20T09:18:46;135.07;;;125.43;;
16308;SDS011;8263;48.880;9.276;2022-12-20T09:21:13;135.70;;;125.97;;
16308;SDS011;8263;48.880;9.276;2022-12-20T09:23:39;135.90;;;126.10;;
16308;SDS011;8263;48.880;9.276;2022-12-20T09:26:07;135.05;;;125.35;;
16308;SDS011;8263;48.880;9.276;2022-12-20T09:28:33;135.30;;;125.63;;
16308;SDS011;8263;48.880;9.276;2022-12-20T09:31:00;136.07;;;126.15;;
16308;SDS011;8263;48.880;9.276;2022-12-20T09:33:27;136.68;;;126.32;;
16308;SDS011;8263;48.880;9.276;2022-12-20T09:35:56;134.50;;;124.90;;
16308;SDS011;8263;48.880;9.276;2022-12-20T09:38:23;136.45;;;126.70;;
16308;SDS011;8263;48.880;9.276;2022-12-20T09:40:50;134.65;;;125.05;;
16308;SDS011;8263;48.880;9.276;2022-12-20T09:43:18;137.75;;;127.70;;
16308;SDS011;8263;48.880;9.276;2022-12-20T09:45:46;135.70;;;125.93;;
16308;SDS011;8263;48.880;9.276;2022-12-20T09:48:13;136.93;;;127.00;;
16308;SDS011;8263;48.880;9.276;2022-12-20T09:50:43;136.88;;;127.05;;
16308;SDS011;8263;48.880;9.276;2022-12-20T09:53:16;137.70;;;127.40;;
16308;SDS011;8263;48.880;9.276;2022-12-20T09:55:46;132.73;;;123.30;;
16308;SDS011;8263;48.880;9.276;2022-12-20T09:58:29;132.63;;;123.20;;
16308;SDS011;8263;48.880;9.276;2022-12-20T10:00:58;134.10;;;124.53;;
16308;SDS011;8263;48.880;9.276;2022-12-20T10:03:33;135.35;;;125.47;;
16308;SDS011;8263;48.880;9.276;2022-12-20T10:06:02;135.77;;;126.07;;
16308;SDS011;8263;48.880;9.276;2022-12-20T10:13:59;136.10;;;126.30;;
16308;SDS011;8263;48.880;9.276;2022-12-20T10:16:33;134.93;;;125.05;;
16308;SDS011;8263;48.880;9.276;2022-12-20T10:19:03;134.82;;;125.05;;
16308;SDS011;8263;48.880;9.276;2022-12-20T10:21:35;134.85;;;125.10;;
16308;SDS011;8263;48.880;9.276;2022-12-20T10:24:08;133.82;;;124.25;;
16308;SDS011;8263;48.880;9.276;2022-12-20T10:26:35;136.18;;;126.38;;
16308;SDS011;8263;48.880;9.276;2022-12-20T10:29:03;135.65;;;125.97;;
16308;SDS011;8263;48.880;9.276;2022-12-20T10:31:29;136.18;;;125.75;;
16308;SDS011;8263;48.880;9.276;2022-12-20T10:33:56;132.40;;;122.97;;
16308;SDS011;8263;48.880;9.276;2022-12-20T10:36:23;134.35;;;124.70;;
16308;SDS011;8263;48.880;9.276;2022-12-20T10:38:51;134.80;;;125.13;;
16308;SDS011;8263;48.880;9.276;2022-12-20T10:41:18;133.18;;;123.72;;
16308;SDS011;8263;48.880;9.276;2022-12-20T10:43:46;133.95;;;124.43;;
16308;SDS011;8263;48.880;9.276;2022-12-20T10:46:14;132.90;;;123.43;;
16308;SDS011;8263;48.880;9.276;2022-12-20T10:48:42;133.98;;;124.38;;
16308;SDS011;8263;48.880;9.276;2022-12-20T10:51:13;133.43;;;123.85;;
16308;SDS011;8263;48.880;9.276;2022-12-20T10:53:49;129.25;;;120.05;;
16308;SDS011;8263;48.880;9.276;2022-12-20T10:56:17;131.10;;;121.90;;
16308;SDS011;8263;48.880;9.276;2022-12-20T10:58:50;131.93;;;122.63;;
16308;SDS011;8263;48.880;9.276;2022-12-20T11:01:19;132.68;;;123.25;;
16308;SDS011;8263;48.880;9.276;2022-12-20T11:03:50;133.38;;;123.88;;
16308;SDS011;8263;48.880;9.276;2022-12-20T11:06:17;135.30;;;125.60;;
16308;SDS011;8263;48.880;9.276;2022-12-20T11:08:44;132.57;;;123.18;;
16308;SDS011;8263;48.880;9.276;2022-12-20T11:11:13;132.48;;;122.93;;
16308;SDS011;8263;48.880;9.276;2022-12-20T11:13:40;133.50;;;123.95;;
16308;SDS011;8263;48.880;9.276;2022-12-20T11:16:21;131.82;;;122.47;;
16308;SDS011;8263;48.880;9.276;2022-12-20T11:18:49;134.95;;;124.75;;
16308;SDS011;8263;48.880;9.276;2022-12-20T11:21:20;132.52;;;123.07;;
16308;SDS011;8263;48.880;9.276;2022-12-20T11:23:49;133.60;;;124.07;;
16308;SDS011;8263;48.880;9.276;2022-12-20T11:26:22;133.48;;;123.75;;
16308;SDS011;8263;48.880;9.276;2022-12-20T11:28:56;134.88;;;124.97;;
16308;SDS011;8263;48.880;9.276;2022-12-20T11:31:27;132.88;;;123.47;;
16308;SDS011;8263;48.880;9.276;2022-12-20T11:34:00;133.20;;;123.40;;
16308;SDS011;8263;48.880;9.276;2022-12-20T11:36:31;132.60;;;123.22;;
16308;SDS011;8263;48.880;9.276;2022-12-20T11:39:04;131.32;;;122.03;;
16308;SDS011;8263;48.880;9.276;2022-12-20T11:41:35;131.88;;;122.55;;
16308;SDS011;8263;48.880;9.276;2022-12-20T11:44:08;130.10;;;120.90;;
16308;SDS011;8263;48.880;9.276;2022-12-20T11:46:46;132.70;;;123.25;;
16308;SDS011;8263;48.880;9.276;2022-12-20T11:49:21;132.10;;;122.63;;
16308;SDS011;8263;48.880;9.276;2022-12-20T11:51:57;132.57;;;123.15;;
16308;SDS011;8263;48.880;9.276;2022-12-20T11:54:28;130.77;;;121.55;;
16308;SDS011;8263;48.880;9.276;2022-12-20T11:56:58;131.82;;;122.53;;
16308;SDS011;8263;48.880;9.276;2022-12-20T11:59:34;131.57;;;122.22;;
16308;SDS011;8263;48.880;9.276;2022-12-20T12:02:03;130.95;;;121.78;;
16308;SDS011;8263;48.880;9.276;2022-12-20T12:04:31;129.88;;;120.68;;
16308;SDS011;8263;48.880;9.276;2022-12-20T12:07:01;130.68;;;121.47;;
16308;SDS011;8263;48.880;9.276;2022-12-20T12:09:29;128.82;;;119.82;;
16308;SDS011;8263;48.880;9.276;2022-12-20T12:11:59;131.77;;;122.38;;
16308;SDS011;8263;48.880;9.276;2022-12-20T12:14:37;131.55;;;122.15;;
16308;SDS011;8263;48.880;9.276;2022-12-20T12:17:11;130.35;;;121.10;;
16308;SDS011;8263;48.880;9.276;2022-12-20T12:19:45;130.60;;;121.43;;
16308;SDS011;8263;48.880;9.276;2022-12-20T12:22:15;130.23;;;121.03;;
16308;SDS011;8263;48.880;9.276;2022-12-20T12:24:42;132.00;;;122.70;;
16308;SDS011;8263;48.880;9.276;2022-12-20T12:27:12;131.18;;;121.45;;
16308;SDS011;8263;48.880;9.276;2022-12-20T12:29:40;128.68;;;119.50;;
16308;SDS011;8263;48.880;9.276;2022-12-20T12:32:07;130.38;;;121.25;;
16308;SDS011;8263;48.880;9.276;2022-12-20T12:34:42;129.63;;;120.50;;
16308;SDS011;8263;48.880;9.276;2022-12-20T12:37:27;130.00;;;120.68;;
16308;SDS011;8263;48.880;9.276;2022-12-20T12:42:56;131.02;;;121.82;;
16308;SDS011;8263;48.880;9.276;2022-12-20T12:45:26;130.60;;;121.35;;
16308;SDS011;8263;48.880;9.276;2022-12-20T12:47:56;128.88;;;119.50;;
16308;SDS011;8263;48.880;9.276;2022-12-20T12:50:27;129.02;;;119.95;;
16308;SDS011;8263;48.880;9.276;2022-12-20T12:52:55;129.30;;;120.28;;
16308;SDS011;8263;48.880;9.276;2022-12-20T12:55:35;129.10;;;120.00;;
16308;SDS011;8263;48.880;9.276;2022-12-20T12:58:12;133.13;;;123.63;;
16308;SDS011;8263;48.880;9.276;2022-12-20T13:00:50;131.75;;;122.38;;
16308;SDS011;8263;48.880;9.276;2022-12-20T13:06:00;132.05;;;122.75;;
16308;SDS011;8263;48.880;9.276;2022-12-20T13:08:48;128.45;;;119.22;;
16308;SDS011;8263;48.880;9.276;2022-12-20T13:11:27;129.32;;;120.32;;
16308;SDS011;8263;48.880;9.276;2022-12-20T13:16:36;127.93;;;119.00;;
16308;SDS011;8263;48.880;9.276;2022-12-20T13:19:13;126.30;;;117.55;;
16308;SDS011;8263;48.880;9.276;2022-12-20T13:21:40;129.50;;;120.15;;
16308;SDS011;8263;48.880;9.276;2022-12-20T13:35:56;127.10;;;118.22;;
16308;SDS011;8263;48.880;9.276;2022-12-20T13:38:47;126.15;;;117.45;;
16308;SDS011;8263;48.880;9.276;2022-12-20T13:41:18;130.27;;;121.07;;
16308;SDS011;8263;48.880;9.276;2022-12-20T13:43:46;126.47;;;117.70;;
16308;SDS011;8263;48.880;9.276;2022-12-20T13:46:14;127.70;;;118.70;;
16308;SDS011;8263;48.880;9.276;2022-12-20T13:48:46;126.95;;;118.15;;
16308;SDS011;8263;48.880;9.276;2022-12-20T13:51:18;125.47;;;116.85;;
16308;SDS011;8263;48.880;9.276;2022-12-20T13:53:48;126.15;;;117.40;;
16308;SDS011;8263;48.880;9.276;2022-12-20T13:56:19;127.18;;;118.28;;
16308;SDS011;8263;48.880;9.276;2022-12-20T13:58:55;125.78;;;117.13;;
16308;SDS011;8263;48.880;9.276;2022-12-20T14:01:23;127.65;;;118.82;;
16308;SDS011;8263;48.880;9.276;2022-12-20T14:03:50;125.97;;;117.25;;
16308;SDS011;8263;48.880;9.276;2022-12-20T14:06:19;128.15;;;119.25;;
16308;SDS011;8263;48.880;9.276;2022-12-20T14:08:47;126.82;;;117.95;;
16308;SDS011;8263;48.880;9.276;2022-12-20T14:11:14;128.25;;;119.22;;
16308;SDS011;8263;48.880;9.276;2022-12-20T14:13:49;126.93;;;117.80;;
16308;SDS011;8263;48.880;9.276;2022-12-20T14:16:17;127.78;;;118.85;;
16308;SDS011;8263;48.880;9.276;2022-12-20T14:18:46;128.18;;;118.88;;
16308;SDS011;8263;48.880;9.276;2022-12-20T14:21:13;125.22;;;116.50;;
16308;SDS011;8263;48.880;9.276;2022-12-20T14:23:42;125.88;;;116.97;;
16308;SDS011;8263;48.880;9.276;2022-12-20T14:26:09;126.40;;;117.63;;
16308;SDS011;8263;48.880;9.276;2022-12-20T14:28:37;125.88;;;117.20;;
16308;SDS011;8263;48.880;9.276;2022-12-20T14:31:05;125.00;;;116.38;;
16308;SDS011;8263;48.880;9.276;2022-12-20T14:33:33;127.80;;;118.90;;
16308;SDS011;8263;48.880;9.276;2022-12-20T14:36:07;127.72;;;118.72;;
16308;SDS011;8263;48.880;9.276;2022-12-20T14:38:34;127.63;;;118.50;;
16308;SDS011;8263;48.880;9.276;2022-12-20T14:41:02;126.72;;;117.70;;
16308;SDS011;8263;48.880;9.276;2022-12-20T14:43:31;130.27;;;121.00;;
16308;SDS011;8263;48.880;9.276;2022-12-20T14:46:07;128.50;;;119.35;;
16308;SDS011;8263;48.880;9.276;2022-12-20T14:48:34;127.13;;;118.22;;
16308;SDS011;8263;48.880;9.276;2022-12-20T14:51:03;127.97;;;118.95;;